Flight Track Log - Related Links

Times and Time Zones

All times are in EDT time to prevent confusion due to time zone crossing. See the SKW6273 flight status page for this flight to view local times or setup timezone preferences in your user account.

Time Position Orientation Groundspeed Altitude Reporting Facility
EDT Latitude Longitude Course Direction KTS MPH feet Rate Location/Type
Fri 09:43:07 AM 51.1000 -114.0333 188° South 160 184 4,700  Level Edmonton Center
Fri 09:44:07 AM 51.1667 -114.0500 351° North 210 242 6,700 2,150 Climbing Edmonton Center
Fri 09:45:00 AM 50.7909 -114.2793 194° South  Level Estimated
Fri 09:45:07 AM 51.2000 -114.1167 309° West 240 276 9,000  Level Edmonton Center
Fri 09:46:00 AM 50.6716 -114.2505 171° South  Level FlightAware Approximate
Fri 09:46:07 AM 51.1333 -114.1833 212° Southwest 290 334 10,500  Level Edmonton Center
Fri 09:47:00 AM 50.5641 -114.3368 196° South  Level Estimated
Fri 09:47:07 AM 51.0500 -114.2167 194° South 330 380 12,300  Level Edmonton Center
Fri 09:48:00 AM 50.4519 -114.3615 188° South  Level FlightAware Approximate
Fri 09:48:07 AM 50.9500 -114.2500 192° South 340 391 14,500  Level Edmonton Center
Fri 09:49:07 AM 50.8667 -114.2833 194° South 360 414 16,200 1,700 Climbing Edmonton Center
Fri 09:50:07 AM 50.7500 -114.3167 190° South 370 426 17,900 1,500 Climbing Edmonton Center
Fri 09:51:07 AM 50.6500 -114.3667 198° South 370 426 19,200 1,400 Climbing Edmonton Center
Fri 09:52:07 AM 50.5667 -114.4000 194° South 380 437 20,700 1,250 Climbing Edmonton Center
Fri 09:53:07 AM 50.4333 -114.4333 189° South 380 437 21,700 1,200 Climbing Edmonton Center
Fri 09:54:07 AM 50.3333 -114.4667 192° South 390 449 23,100 1,400 Climbing Edmonton Center
Fri 09:55:07 AM 50.2333 -114.5167 198° South 410 472 24,500 1,350 Climbing Edmonton Center
Fri 09:56:07 AM 50.1167 -114.5500 190° South 420 483 25,800 1,200 Climbing Edmonton Center
Fri 09:57:07 AM 49.9833 -114.6000 194° South 430 495 26,900 1,200 Climbing Edmonton Center
Fri 09:58:07 AM 49.8833 -114.6333 192° South 450 518 28,200 1,200 Climbing Edmonton Center
Fri 09:59:07 AM 49.7333 -114.6833 192° South 450 518 29,300 1,050 Climbing Edmonton Center
Fri 10:00:07 AM 49.6167 -114.7333 196° South 460 529 30,300 1,000 Climbing Edmonton Center
Fri 10:01:07 AM 49.5000 -114.7833 196° South 470 541 31,300 1,050 Climbing Edmonton Center
Fri 10:02:07 AM 49.3500 -114.8333 192° South 470 541 32,400 1,050 Climbing Edmonton Center
Fri 10:03:07 AM 49.2333 -114.8500 185° South 470 541 33,400 1,700 Climbing Edmonton Center
Fri 10:04:07 AM 49.1167 -114.9000 196° South 460 529 35,800 1,300 Climbing Edmonton Center
Fri 10:05:07 AM 48.9833 -114.9500 194° South 440 506 36,000 100 Climbing Edmonton Center
Fri 10:06:07 AM 48.8667 -115.0167 201° Southwest 450 518 36,000  Level Edmonton Center
Fri 10:07:04 AM 48.8056 -115.0297 188° South 452 520 36,000  Level Seattle Center
Fri 10:08:05 AM 48.6872 -115.0872 198° South 451 519 36,000  Level Seattle Center
Fri 10:09:06 AM 48.5658 -115.1464 198° South 457 526 36,000  Level Seattle Center
Fri 10:10:07 AM 48.4186 -115.2175 198° South 465 535 36,000  Level Seattle Center
Fri 10:11:08 AM 48.2958 -115.2769 198° South 467 537 36,000  Level Seattle Center
Fri 10:12:08 AM 48.1725 -115.3369 198° South 470 541 36,000  Level Seattle Center
Fri 10:13:09 AM 48.0486 -115.3958 198° South 471 542 36,000  Level Seattle Center
Fri 10:14:10 AM 47.9300 -115.4514 197° South 471 542 36,000  Level Seattle Center
Fri 10:15:11 AM 47.8047 -115.5111 198° South 472 543 36,000  Level Seattle Center
Fri 10:16:12 AM 47.6761 -115.5703 197° South 472 543 36,000  Level Seattle Center
Fri 10:17:13 AM 47.5514 -115.6292 198° South 474 545 36,000  Level Seattle Center
Fri 10:18:14 AM 47.4261 -115.6864 197° South 474 545 36,000  Level Seattle Center
Fri 10:19:14 AM 47.3033 -115.7442 198° South 471 542 36,000  Level Seattle Center
Fri 10:20:15 AM 47.1767 -115.8014 197° South 472 543 36,000  Level Seattle Center
Fri 10:21:16 AM 47.0264 -115.8711 198° South 472 543 36,000  Level Seattle Center
Fri 10:22:17 AM 46.9022 -115.9267 197° South 469 540 36,000  Level Seattle Center
Fri 10:23:18 AM 46.7800 -115.9811 197° South 462 532 36,000  Level Seattle Center
Fri 10:24:19 AM 46.6564 -116.0378 197° South 464 534 36,000  Level Seattle Center
Fri 10:25:20 AM 46.5331 -116.0928 197° South 464 534 36,000  Level Seattle Center
Fri 10:26:21 AM 46.4114 -116.1467 197° South 460 529 36,000  Level Seattle Center
Fri 10:27:22 AM 46.2903 -116.2008 197° South 457 526 36,000  Level Seattle Center
Fri 10:28:23 AM 46.1672 -116.2547 197° South 459 528 36,000  Level Seattle Center
Fri 10:29:24 AM 46.0467 -116.3081 197° South 455 524 36,000  Level Seattle Center
Fri 10:30:25 AM 45.9261 -116.3617 197° South 454 522 36,000  Level Seattle Center
Fri 10:31:26 AM 45.8056 -116.4131 197° South 454 522 36,000  Level Seattle Center
Fri 10:32:39 AM 45.6606 -116.4761 197° South 454 522 36,000  Level Seattle Center
Fri 10:33:40 AM 45.5392 -116.5297 197° South 455 524 36,000  Level Seattle Center
Fri 10:34:41 AM 45.4189 -116.5800 196° South 453 521 36,000  Level Seattle Center
Fri 10:35:42 AM 45.2761 -116.6428 197° South 449 517 36,000  Level Seattle Center
Fri 10:36:43 AM 45.1561 -116.6936 197° South 450 518 36,000  Level Seattle Center
Fri 10:37:44 AM 45.0361 -116.7447 197° South 450 518 36,000  Level Seattle Center
Fri 10:38:45 AM 44.9169 -116.7942 196° South 447 514 36,000  Level Seattle Center
Fri 10:39:46 AM 44.7978 -116.8456 197° South 448 516 36,000  Level Seattle Center
Fri 10:40:47 AM 44.6781 -116.8947 196° South 447 514 36,000  Level Seattle Center
Fri 10:41:48 AM 44.5622 -116.9436 197° South 446 513 36,000  Level Seattle Center
Fri 10:42:49 AM 44.4450 -116.9917 196° South 442 509 36,000  Level Seattle Center
Fri 10:43:50 AM 44.3292 -117.0472 199° South 440 506 36,000  Level Seattle Center
Fri 10:44:51 AM 44.2153 -117.1042 200° South 438 504 36,000  Level Seattle Center
Fri 10:45:52 AM 44.1028 -117.1592 199° South 434 499 36,000  Level Seattle Center
Fri 10:46:53 AM 43.9642 -117.2247 199° South 434 499 36,000  Level Seattle Center
Fri 10:47:54 AM 43.8486 -117.2797 199° South 436 502 36,000  Level Seattle Center
Fri 10:48:55 AM 43.7325 -117.3336 199° South 438 504 36,000  Level Seattle Center
Fri 10:49:56 AM 43.6153 -117.3900 199° South 440 506 36,000  Level Seattle Center
Fri 10:50:57 AM 43.5000 -117.4447 199° South 440 506 36,000  Level Seattle Center
Fri 10:51:58 AM 43.3842 -117.5000 199° South 440 506 36,000  Level Seattle Center
Fri 10:52:59 AM 43.2689 -117.5536 199° South 439 505 36,000  Level Seattle Center
Fri 10:54:00 AM 43.1536 -117.6072 199° South 439 505 36,000  Level Seattle Center
Fri 10:55:01 AM 43.0394 -117.6614 199° South 438 504 36,000  Level Seattle Center
Fri 10:55:31 AM 42.9678 -117.6953 199° South 433 498 36,000  Level Salt Lake Center
Fri 10:56:33 AM 42.8569 -117.7450 198° South 437 503 36,000  Level Salt Lake Center
Fri 10:57:35 AM 42.7297 -117.8044 199° South 434 499 36,000  Level Salt Lake Center
Fri 10:58:37 AM 42.6206 -117.8558 199° South 432 497 36,000  Level Salt Lake Center
Fri 10:59:39 AM 42.5147 -117.9603 216° Southwest 420 483 36,000  Level Salt Lake Center
Fri 11:00:41 AM 42.4319 -118.0608 222° Southwest 418 481 36,000  Level Salt Lake Center
Fri 11:01:43 AM 42.3483 -118.1639 222° Southwest 424 488 36,000  Level Salt Lake Center
Fri 11:02:45 AM 42.2528 -118.2761 221° Southwest 414 476 36,000  Level Salt Lake Center
Fri 11:03:47 AM 42.1714 -118.3733 222° Southwest 409 471 36,000  Level Salt Lake Center
Fri 11:04:49 AM 42.0753 -118.4869 221° Southwest 411 473 36,000  Level Salt Lake Center
Fri 11:05:51 AM 41.9939 -118.5842 222° Southwest 408 470 36,000  Level Salt Lake Center
Fri 11:06:53 AM 41.8981 -118.6978 221° Southwest 410 472 36,000  Level Salt Lake Center
Fri 11:07:55 AM 41.8161 -118.7944 221° Southwest 412 474 36,000  Level Salt Lake Center
Fri 11:08:57 AM 41.7200 -118.9072 221° Southwest 411 473 36,000  Level Salt Lake Center
Fri 11:09:59 AM 41.6358 -119.0053 221° Southwest 416 479 36,000  Level Salt Lake Center
Fri 11:11:01 AM 41.5381 -119.1192 221° Southwest 417 480 36,000  Level Salt Lake Center
Fri 11:12:03 AM 41.4536 -119.2169 221° Southwest 420 483 36,000  Level Salt Lake Center
Fri 11:13:05 AM 41.3544 -119.3311 221° Southwest 421 484 36,000  Level Salt Lake Center
Fri 11:13:54 AM 41.2822 -119.4153 221° Southwest 425 489 36,000  Level Seattle Center
Fri 11:14:55 AM 41.1928 -119.5175 221° Southwest 424 488 36,000  Level Seattle Center
Fri 11:15:56 AM 41.1036 -119.6194 221° Southwest 424 488 36,000  Level Seattle Center
Fri 11:16:57 AM 41.0144 -119.7211 221° Southwest 423 487 36,000  Level Seattle Center
Fri 11:17:58 AM 40.9256 -119.8228 221° Southwest 423 487 36,000  Level Seattle Center
Fri 11:18:59 AM 40.8367 -119.9228 220° Southwest 421 484 36,000  Level Seattle Center
Fri 11:20:00 AM 40.7472 -120.0233 220° Southwest 421 484 36,000  Level Seattle Center
Fri 11:21:01 AM 40.6578 -120.1225 220° Southwest 420 483 36,000  Level Seattle Center
Fri 11:22:02 AM 40.5692 -120.2222 221° Southwest 419 482 36,000  Level Seattle Center
Fri 11:23:03 AM 40.4808 -120.3206 220° Southwest 417 480 36,000  Level Seattle Center
Fri 11:24:04 AM 40.3942 -120.4161 220° Southwest 411 473 36,000  Level Seattle Center
Fri 11:25:05 AM 40.2906 -120.5300 220° Southwest 413 475 36,000  Level Seattle Center
Fri 11:26:05 AM 40.2044 -120.6256 220° Southwest 408 470 36,000  Level Seattle Center
Fri 11:27:06 AM 40.1172 -120.7200 220° Southwest 407 468 36,000  Level Seattle Center
Fri 11:28:07 AM 40.0286 -120.8167 220° Southwest 413 475 36,000  Level Seattle Center
Fri 11:29:37 AM 39.9044 -120.9506 220° Southwest 405 466 36,000  Level Oakland Center
Fri 11:30:39 AM 39.8172 -121.0450 220° Southwest 408 470 36,000  Level Oakland Center
Fri 11:31:40 AM 39.7153 -121.1556 220° Southwest 406 467 36,000  Level Oakland Center
Fri 11:32:42 AM 39.6281 -121.2494 220° Southwest 405 466 36,000  Level Oakland Center
Fri 11:33:43 AM 39.5406 -121.3444 220° Southwest 408 470 36,000  Level Oakland Center
Fri 11:34:45 AM 39.4786 -121.4606 235° Southwest 390 449 36,000  Level Oakland Center
Fri 11:35:46 AM 39.4203 -121.5800 238° Southwest 394 453 36,000  Level Oakland Center
Fri 11:36:48 AM 39.3617 -121.6958 237° Southwest 389 448 36,000  Level Oakland Center
Fri 11:37:49 AM 39.3017 -121.8125 236° Southwest 391 450 36,000  Level Oakland Center
Fri 11:38:51 AM 39.2422 -121.9281 236° Southwest 389 448 36,000 -244 Level Oakland Center
Fri 11:39:52 AM 39.1519 -122.0167 217° Southwest 413 475 35,500 -829 Descending Oakland Center
Fri 11:40:54 AM 39.0325 -122.1128 212° Southwest 422 486 34,300 -1,073 Descending Oakland Center
Fri 11:41:55 AM 38.9311 -122.1956 212° Southwest 431 496 33,300 -1,610 Descending Oakland Center
Fri 11:42:57 AM 38.8289 -122.2764 212° Southwest 433 498 31,000 -8,244 Descending Oakland Center
Fri 11:43:58 AM 38.2261 -122.3644 187° South 196 226 16,400 -6,732 Descending Oakland Center
Fri 11:45:00 AM 38.2831 -122.3586 North 203 234 17,200 780 Climbing Oakland Center
Fri 11:46:01 AM 38.3417 -122.3536 North 210 242 18,000 829 Climbing Oakland Center
Fri 11:47:03 AM 38.4017 -122.3492 North 214 246 18,900 829 Climbing Oakland Center
Fri 11:48:04 AM 38.4625 -122.3442 North 219 252 19,700 -341 Climbing Oakland Center
Fri 11:49:06 AM 38.2686 -122.7200 237° Southwest 363 418 18,200 732 Descending Oakland Center
Fri 11:50:07 AM 38.5819 -122.3336 44° Northeast 216 249 21,200 -2,049 Climbing Oakland Center
Fri 11:51:09 AM 38.0856 -122.8439 219° Southwest 346 398 14,000 -3,311 Descending Oakland Center
Fri 11:53:10 AM 37.9167 -122.6833 143° Southeast 375 432 11,100 -978 Descending Northern Cal TRACON
Fri 11:54:13 AM 37.8417 -122.6106 143° Southeast 373 429 11,000 -50 Descending Oakland Center
Fri 11:55:10 AM 37.7667 -122.5167 135° Southeast 313 360 11,000 54 Level Northern Cal TRACON
Fri 11:56:04 AM 37.7167 -122.4667 142° Southeast 250 288 11,100 53 Climbing Northern Cal TRACON
Fri 11:57:04 AM 37.6667 -122.4167 142° Southeast 245 282 11,100  Level Northern Cal TRACON
Fri 11:58:04 AM 37.6000 -122.3667 149° Southeast 245 282 11,100 -550 Level Northern Cal TRACON
Fri 11:59:04 AM 37.5500 -122.3167 142° Southeast 237 273 10,000 -1,200 Descending Northern Cal TRACON
Fri 12:00:04 PM 37.5000 -122.2833 152° Southeast 230 265 8,700 -1,450 Descending Northern Cal TRACON
Fri 12:01:04 PM 37.4333 -122.2833 180° South 219 252 7,100 -800 Descending Northern Cal TRACON
Fri 12:02:04 PM 37.3833 -122.2500 152° Southeast 229 264 7,100  Level Northern Cal TRACON
Fri 12:03:04 PM 37.3667 -122.1833 107° East 224 258 7,100  Level Northern Cal TRACON
Fri 12:04:04 PM 37.3333 -122.1167 122° Southeast 221 254 7,100  Level Northern Cal TRACON
Fri 12:05:04 PM 37.3667 -122.0667 50° Northeast 193 222 7,100 -550 Level Northern Cal TRACON
Fri 12:06:04 PM 37.4167 -122.0500 15° North 191 220 6,000 -550 Descending Northern Cal TRACON
Fri 12:07:04 PM 37.4667 -122.0333 15° North 194 223 6,000 8,000 Level Northern Cal TRACON
Fri 12:08:34 PM 39.7600 -122.4919 351° North 232 267 26,000 -868 Climbing Oakland Center
Fri 12:09:36 PM 37.5483 -122.1675 173° South 193 222 3,800 -21,484 Descending Oakland Center

Login

Don't have an account? Register now (free) for customized features, flight alerts, and more!